createdAt,value
2023-06-07T04:13:20.313Z,75.00
2023-06-07T04:15:48.774Z,75.40
2023-06-07T04:18:16.695Z,75.20
2023-06-07T04:20:44.664Z,75.40
2023-06-07T04:23:12.804Z,75.60
2023-06-07T04:25:41.187Z,75.50
2023-06-07T04:28:09.365Z,75.90
2023-06-07T04:30:43.333Z,76.70
2023-06-07T04:33:14.628Z,77.30
2023-06-07T04:35:43.885Z,76.90
2023-06-07T04:38:13.881Z,76.50
2023-06-07T04:40:43.630Z,76.50
2023-06-07T04:43:12.540Z,76.50
2023-06-07T04:45:42.403Z,76.20
2023-06-07T04:48:12.735Z,76.60
2023-06-07T04:50:42.322Z,76.20
2023-06-07T04:53:11.855Z,76.20
2023-06-07T04:55:42.768Z,76.30
2023-06-07T04:58:11.155Z,76.20
2023-06-07T05:00:40.241Z,76.20
2023-06-07T05:03:09.781Z,76.00
2023-06-07T05:05:38.243Z,76.20
2023-06-07T05:08:07.132Z,76.80
2023-06-07T05:10:35.029Z,76.10
2023-06-07T05:13:03.017Z,76.00
2023-06-07T05:15:32.203Z,75.80
2023-06-07T05:18:00.758Z,76.20
2023-06-07T05:20:30.982Z,76.00
2023-06-07T05:22:58.941Z,76.30
2023-06-07T05:25:27.069Z,75.90
2023-06-07T05:28:08.070Z,76.00
2023-06-07T05:30:39.772Z,76.00
2023-06-07T05:33:08.709Z,76.30
2023-06-07T05:35:37.968Z,76.40
2023-06-07T05:38:05.806Z,76.50
2023-06-07T05:40:33.699Z,76.40
2023-06-07T05:43:01.640Z,76.30
2023-06-07T05:45:29.564Z,76.40
2023-06-07T05:47:57.527Z,76.70
2023-06-07T05:50:25.601Z,76.60
2023-06-07T05:52:57.513Z,76.60
2023-06-07T05:55:26.527Z,77.10
2023-06-07T05:57:54.799Z,77.20
2023-06-07T06:00:23.465Z,77.40
2023-06-07T06:02:54.053Z,77.50
2023-06-07T06:05:24.658Z,75.90
2023-06-07T06:07:52.691Z,77.60
2023-06-07T06:10:21.895Z,77.50
2023-06-07T06:12:50.847Z,77.60
2023-06-07T06:15:18.878Z,77.50
2023-06-07T06:17:47.427Z,77.50
2023-06-07T06:20:17.513Z,77.10
2023-06-07T06:22:45.491Z,77.20
2023-06-07T06:25:15.007Z,77.00
2023-06-07T06:27:44.569Z,76.40
2023-06-07T06:30:13.685Z,76.30
2023-06-07T06:32:41.551Z,75.80
2023-06-07T06:35:10.431Z,75.60
2023-06-07T06:37:38.597Z,75.40
2023-06-07T06:40:08.365Z,74.80
2023-06-07T06:42:36.703Z,74.80
2023-06-07T06:45:08.028Z,74.60
2023-06-07T06:47:37.244Z,74.40
2023-06-07T06:50:12.010Z,73.60
2023-06-07T06:52:48.064Z,73.50
2023-06-07T06:55:16.264Z,73.40
2023-06-07T06:57:44.386Z,73.40
2023-06-07T07:00:14.871Z,73.00
2023-06-07T07:02:42.763Z,72.90
2023-06-07T07:05:11.629Z,72.80
2023-06-07T07:07:40.597Z,72.90
2023-06-07T07:10:09.723Z,72.60
2023-06-07T07:12:40.082Z,73.10
2023-06-07T07:15:08.761Z,72.20
2023-06-07T07:17:45.725Z,72.20
2023-06-07T07:20:14.181Z,72.70
2023-06-07T07:22:42.191Z,72.60
2023-06-07T07:25:10.846Z,72.50
2023-06-07T07:27:38.852Z,72.50
2023-06-07T07:30:08.138Z,72.30
2023-06-07T07:32:37.394Z,72.00
2023-06-07T07:35:06.225Z,72.50
2023-06-07T07:37:34.452Z,71.80
2023-06-07T07:40:03.114Z,71.60
2023-06-07T07:42:31.281Z,71.50
2023-06-07T07:44:59.463Z,71.30
2023-06-07T07:47:27.556Z,71.10
2023-06-07T07:49:57.677Z,71.10
2023-06-07T07:52:25.657Z,71.20
2023-06-07T07:54:53.573Z,71.10
2023-06-07T07:57:21.500Z,71.00
2023-06-07T07:59:49.913Z,71.30
2023-06-07T08:02:18.245Z,71.20
2023-06-07T08:04:46.484Z,71.70
2023-06-07T08:07:16.960Z,72.00
2023-06-07T08:09:45.049Z,71.70
2023-06-07T08:12:13.196Z,71.30
2023-06-07T08:14:41.161Z,70.90
2023-06-07T08:17:09.005Z,70.80
2023-06-07T08:19:37.190Z,70.40
2023-06-07T08:22:05.492Z,70.60
2023-06-07T08:24:35.025Z,70.60
2023-06-07T08:27:02.954Z,70.00
2023-06-07T08:29:30.908Z,69.80
2023-06-07T08:31:59.363Z,69.90
2023-06-07T08:34:31.254Z,69.70
2023-06-07T08:37:02.460Z,69.10
2023-06-07T08:39:30.447Z,68.80
2023-06-07T08:41:59.883Z,68.70
2023-06-07T08:44:27.731Z,68.00
2023-06-07T08:46:57.100Z,68.10
2023-06-07T08:49:26.265Z,68.20
2023-06-07T08:52:13.993Z,68.30
2023-06-07T08:54:48.960Z,67.40
2023-06-07T08:57:20.123Z,66.50
2023-06-07T08:59:49.700Z,66.60
2023-06-07T09:02:18.492Z,66.60
2023-06-07T09:04:48.716Z,66.50
2023-06-07T09:07:17.101Z,66.00
2023-06-07T09:09:45.535Z,66.10
2023-06-07T09:12:14.030Z,65.80
2023-06-07T09:14:43.833Z,65.80
2023-06-07T09:17:12.105Z,64.70
2023-06-07T09:19:41.573Z,64.20
2023-06-07T09:22:10.976Z,64.30
2023-06-07T09:24:40.006Z,64.10
2023-06-07T09:27:09.140Z,63.70
2023-06-07T09:29:41.754Z,64.10
2023-06-07T09:32:20.211Z,63.70
2023-06-07T09:35:13.894Z,62.90
2023-06-07T09:37:46.143Z,60.30
2023-06-07T09:40:16.283Z,62.00
2023-06-07T09:42:45.357Z,61.60
2023-06-07T09:45:18.235Z,61.30
2023-06-07T09:47:47.733Z,60.80
2023-06-07T09:50:16.688Z,61.10
2023-06-07T09:52:44.813Z,61.80
2023-06-07T09:55:28.496Z,61.40
2023-06-07T09:57:57.368Z,60.20
2023-06-07T10:00:26.788Z,60.60
2023-06-07T10:03:07.828Z,61.10
2023-06-07T10:05:37.097Z,60.90
2023-06-07T10:08:06.453Z,60.20
2023-06-07T10:10:36.006Z,60.40
2023-06-07T10:13:06.579Z,60.60
2023-06-07T10:15:36.776Z,59.50
2023-06-07T10:18:15.075Z,60.70
2023-06-07T10:20:49.149Z,59.80
2023-06-07T10:23:31.357Z,60.00
2023-06-07T10:26:04.590Z,59.60
2023-06-07T10:28:39.138Z,60.10
2023-06-07T10:31:13.867Z,58.80
2023-06-07T10:33:43.582Z,58.40
2023-06-07T10:36:16.309Z,58.30
2023-06-07T10:38:44.405Z,58.20
2023-06-07T10:41:18.017Z,58.50
2023-06-07T10:43:48.187Z,58.20
2023-06-07T10:46:21.147Z,58.50
2023-06-07T10:48:51.063Z,58.70
2023-06-07T10:51:20.704Z,58.70
2023-06-07T10:53:53.946Z,59.30
2023-06-07T10:56:29.985Z,57.40
2023-06-07T10:58:59.142Z,57.30
2023-06-07T11:01:27.797Z,57.20
2023-06-07T11:03:57.421Z,56.00
2023-06-07T11:06:25.609Z,56.30
2023-06-07T11:09:19.965Z,56.60
2023-06-07T11:11:47.915Z,55.60
2023-06-07T11:14:16.403Z,56.60
2023-06-07T11:16:44.425Z,56.40
2023-06-07T11:19:17.964Z,56.10
2023-06-07T11:22:05.330Z,55.60
2023-06-07T11:24:35.335Z,54.20
2023-06-07T11:27:03.593Z,54.40
2023-06-07T11:29:32.329Z,54.50
2023-06-07T11:32:02.182Z,54.80
2023-06-07T11:34:34.275Z,54.30
2023-06-07T11:37:16.845Z,53.10
2023-06-07T11:39:45.522Z,52.70
2023-06-07T11:42:13.540Z,52.70
2023-06-07T11:44:41.424Z,52.60
2023-06-07T11:47:09.596Z,52.30
2023-06-07T11:49:42.144Z,52.40
2023-06-07T11:52:10.636Z,51.80
2023-06-07T11:54:44.517Z,52.30
2023-06-07T11:57:15.381Z,51.40
2023-06-07T11:59:48.294Z,51.70
2023-06-07T12:02:17.008Z,51.70
2023-06-07T12:04:46.521Z,50.80
2023-06-07T12:07:32.378Z,51.40
2023-06-07T12:10:01.428Z,51.00
2023-06-07T12:12:29.283Z,51.40
2023-06-07T12:15:04.453Z,52.10
2023-06-07T12:17:35.931Z,51.60
2023-06-07T12:20:13.186Z,50.80
2023-06-07T12:22:41.443Z,49.70
2023-06-07T12:25:10.936Z,50.00
2023-06-07T12:27:39.171Z,49.50
2023-06-07T12:30:09.279Z,49.90
2023-06-07T12:32:37.463Z,49.70
2023-06-07T12:35:07.352Z,49.20
2023-06-07T12:37:37.537Z,49.00
2023-06-07T12:40:07.059Z,48.80
2023-06-07T12:42:36.318Z,49.10
2023-06-07T12:45:05.527Z,48.90
2023-06-07T12:47:33.830Z,48.50
2023-06-07T12:50:01.804Z,48.30
2023-06-07T12:52:29.746Z,48.70
2023-06-07T12:54:59.306Z,48.10
2023-06-07T12:57:27.162Z,47.00
2023-06-07T12:59:55.049Z,47.20
2023-06-07T13:02:23.180Z,47.20
2023-06-07T13:04:51.118Z,47.30
2023-06-07T13:07:20.364Z,47.10
2023-06-07T13:09:51.217Z,47.10
2023-06-07T13:12:21.254Z,47.00
2023-06-07T13:14:49.281Z,47.00
2023-06-07T13:17:17.809Z,46.70
2023-06-07T13:19:46.170Z,46.80
2023-06-07T13:22:14.167Z,46.60
2023-06-07T13:24:42.075Z,46.20
2023-06-07T13:27:10.738Z,46.10
2023-06-07T13:29:40.384Z,45.90
2023-06-07T13:32:09.109Z,45.80
2023-06-07T13:34:37.152Z,46.30
2023-06-07T13:37:05.049Z,46.30
2023-06-07T13:39:33.449Z,45.30
2023-06-07T13:42:01.504Z,45.80
2023-06-07T13:44:29.698Z,46.10
2023-06-07T13:46:59.084Z,46.30
2023-06-07T13:49:27.063Z,47.10
2023-06-07T13:51:55.041Z,46.30
2023-06-07T13:54:22.916Z,45.50
2023-06-07T13:56:51.834Z,45.80
2023-06-07T13:59:20.559Z,45.50
2023-06-07T14:01:53.076Z,45.20
2023-06-07T14:04:24.404Z,44.90
2023-06-07T14:06:52.625Z,45.10
2023-06-07T14:09:20.615Z,44.90
2023-06-07T14:11:49.269Z,45.00
2023-06-07T14:14:17.410Z,45.80
2023-06-07T14:16:45.753Z,45.80
2023-06-07T14:19:14.058Z,45.70
2023-06-07T14:21:43.352Z,45.60
2023-06-07T14:24:11.801Z,46.10
2023-06-07T14:26:39.780Z,46.20
2023-06-07T14:29:07.719Z,46.00
2023-06-07T14:31:35.793Z,45.90
2023-06-07T14:34:03.804Z,46.10
2023-06-07T14:36:31.727Z,45.50
2023-06-07T14:39:01.515Z,45.40
2023-06-07T14:41:29.411Z,45.50
2023-06-07T14:43:57.583Z,45.80
2023-06-07T14:46:25.946Z,45.80
2023-06-07T14:48:53.894Z,45.50
2023-06-07T14:51:24.366Z,45.30
2023-06-07T14:53:55.541Z,45.50
2023-06-07T14:56:26.913Z,44.80
2023-06-07T14:58:54.817Z,45.20
2023-06-07T15:01:24.263Z,45.10
2023-06-07T15:03:52.172Z,45.00
2023-06-07T15:06:20.026Z,45.10
2023-06-07T15:08:54.357Z,45.20
2023-06-07T15:11:22.330Z,45.40
2023-06-07T15:13:51.728Z,45.00
2023-06-07T15:16:19.590Z,44.50
2023-06-07T15:18:47.631Z,44.60
2023-06-07T15:21:15.674Z,44.30
2023-06-07T15:23:43.591Z,44.40
2023-06-07T15:26:14.412Z,44.00
2023-06-07T15:28:42.278Z,43.70
2023-06-07T15:31:11.709Z,42.50
2023-06-07T15:33:39.578Z,42.50
2023-06-07T15:36:07.736Z,42.70
2023-06-07T15:38:38.457Z,42.90
2023-06-07T15:41:09.112Z,42.90
2023-06-07T15:43:37.778Z,43.80
2023-06-07T15:46:06.011Z,43.20
2023-06-07T15:48:35.336Z,42.30
2023-06-07T15:51:04.541Z,42.20
2023-06-07T15:53:32.384Z,42.30
2023-06-07T15:56:00.279Z,42.00
2023-06-07T15:58:28.108Z,42.10
2023-06-07T16:00:55.996Z,42.00
2023-06-07T16:03:23.937Z,42.20
2023-06-07T16:05:53.275Z,41.20
2023-06-07T16:08:21.105Z,41.60
2023-06-07T16:10:49.998Z,41.60
2023-06-07T16:13:17.897Z,41.20
2023-06-07T16:15:45.738Z,41.10
2023-06-07T16:18:14.123Z,41.10
2023-06-07T16:20:41.950Z,40.40
2023-06-07T16:23:11.485Z,40.60
2023-06-07T16:25:39.425Z,40.70
2023-06-07T16:28:07.393Z,40.70
2023-06-07T16:30:35.348Z,41.10
2023-06-07T16:33:04.456Z,41.30
2023-06-07T16:35:32.417Z,41.70
2023-06-07T16:38:00.322Z,42.50
2023-06-07T16:40:29.881Z,42.90
2023-06-07T16:42:57.811Z,43.40
2023-06-07T16:45:27.423Z,43.50
2023-06-07T16:47:55.436Z,43.60
2023-06-07T16:50:23.302Z,44.10
2023-06-07T16:52:51.266Z,44.50
2023-06-07T16:55:19.262Z,44.70
2023-06-07T16:57:48.878Z,44.70
2023-06-07T17:00:18.341Z,44.20
2023-06-07T17:02:49.089Z,43.80
2023-06-07T17:05:17.637Z,43.60
2023-06-07T17:07:45.576Z,43.10
2023-06-07T17:10:13.530Z,42.90
2023-06-07T17:12:41.395Z,43.00
2023-06-07T17:15:11.680Z,42.90
2023-06-07T17:17:39.544Z,43.50
2023-06-07T17:20:08.819Z,44.10
2023-06-07T17:22:36.886Z,44.30
2023-06-07T17:25:05.024Z,44.40
2023-06-07T17:27:32.855Z,44.40
2023-06-07T17:30:00.771Z,44.70
2023-06-07T17:32:29.966Z,44.50
2023-06-07T17:34:57.897Z,44.90
2023-06-07T17:37:25.726Z,45.10
2023-06-07T17:39:53.645Z,45.40
2023-06-07T17:42:22.190Z,45.60
2023-06-07T17:44:52.444Z,45.50
2023-06-07T17:47:22.580Z,45.60
2023-06-07T17:49:51.973Z,45.90
2023-06-07T17:52:22.935Z,46.20
2023-06-07T17:54:51.319Z,46.40
2023-06-07T17:57:19.295Z,46.30
2023-06-07T17:59:49.638Z,46.50
2023-06-07T18:02:19.942Z,46.60
2023-06-07T18:04:47.849Z,46.70
2023-06-07T18:07:17.121Z,46.90
2023-06-07T18:09:46.743Z,47.10
2023-06-07T18:12:15.108Z,47.20
2023-06-07T18:14:43.033Z,47.40
2023-06-07T18:17:11.778Z,47.70
2023-06-07T18:19:40.303Z,47.90
2023-06-07T18:22:08.256Z,48.00
2023-06-07T18:24:38.633Z,48.00
2023-06-07T18:27:08.958Z,48.30
2023-06-07T18:29:36.901Z,48.30
2023-06-07T18:32:06.846Z,48.50
2023-06-07T18:34:35.383Z,48.70
2023-06-07T18:37:03.955Z,48.70
2023-06-07T18:39:31.791Z,48.70
2023-06-07T18:42:01.216Z,49.10
2023-06-07T18:44:31.290Z,49.20
2023-06-07T18:46:59.259Z,49.50
2023-06-07T18:49:27.317Z,49.70
2023-06-07T18:51:55.960Z,49.80
2023-06-07T18:54:23.887Z,49.90
2023-06-07T18:56:51.816Z,50.70
2023-06-07T18:59:21.155Z,51.10
2023-06-07T19:01:52.595Z,51.00
2023-06-07T19:04:20.876Z,50.80
2023-06-07T19:06:51.651Z,50.60
2023-06-07T19:09:20.145Z,50.60
2023-06-07T19:11:48.856Z,50.70
2023-06-07T19:14:17.298Z,50.80
2023-06-07T19:16:47.015Z,50.80
2023-06-07T19:19:15.728Z,50.90
2023-06-07T19:21:43.552Z,50.50
2023-06-07T19:24:11.601Z,50.50
2023-06-07T19:26:39.539Z,50.70
2023-06-07T19:29:07.355Z,50.70
2023-06-07T19:31:35.355Z,50.80
2023-06-07T19:34:06.788Z,50.80
2023-06-07T19:36:34.824Z,50.90
2023-06-07T19:39:02.749Z,51.30
2023-06-07T19:41:30.597Z,51.40
2023-06-07T19:43:58.569Z,51.50
2023-06-07T19:46:26.459Z,51.50
2023-06-07T19:48:54.440Z,51.60
2023-06-07T19:51:23.871Z,51.60
2023-06-07T19:53:53.050Z,51.80
2023-06-07T19:56:21.228Z,52.80
2023-06-07T19:58:49.743Z,51.80
2023-06-07T20:01:17.984Z,51.90
2023-06-07T20:03:45.862Z,51.80
2023-06-07T20:06:13.720Z,52.20
2023-06-07T20:08:43.505Z,52.90
2023-06-07T20:11:11.516Z,52.40
2023-06-07T20:13:39.308Z,52.50
2023-06-07T20:16:07.581Z,53.00
2023-06-07T20:18:37.098Z,53.00
2023-06-07T20:21:05.081Z,53.10
2023-06-07T20:23:33.048Z,53.20
2023-06-07T20:26:02.319Z,53.30
2023-06-07T20:28:30.328Z,53.30
2023-06-07T20:30:59.054Z,53.40
2023-06-07T20:33:27.222Z,53.40
2023-06-07T20:35:55.086Z,53.40
2023-06-07T20:38:22.912Z,53.50
2023-06-07T20:40:51.138Z,53.50
2023-06-07T20:43:20.385Z,53.50
2023-06-07T20:45:48.808Z,53.70
2023-06-07T20:48:17.096Z,53.80
2023-06-07T20:50:44.925Z,54.00
2023-06-07T20:53:13.140Z,54.00
2023-06-07T20:55:41.036Z,54.00
2023-06-07T20:58:08.928Z,54.20
2023-06-07T21:00:40.065Z,54.40
2023-06-07T21:03:08.110Z,53.80
2023-06-07T21:05:36.259Z,54.50
2023-06-07T21:08:04.217Z,54.60
2023-06-07T21:10:33.850Z,54.60
2023-06-07T21:13:03.058Z,54.80
2023-06-07T21:15:31.064Z,54.70
2023-06-07T21:18:00.593Z,55.10
2023-06-07T21:20:28.476Z,55.30
2023-06-07T21:22:56.900Z,55.30
2023-06-07T21:25:25.285Z,55.30
2023-06-07T21:27:53.135Z,55.50
2023-06-07T21:30:21.629Z,55.70
2023-06-07T21:32:50.024Z,55.90
2023-06-07T21:35:19.335Z,55.80
2023-06-07T21:37:47.752Z,56.10
2023-06-07T21:40:16.000Z,56.10
2023-06-07T21:42:43.857Z,56.30
2023-06-07T21:45:13.067Z,56.30
2023-06-07T21:47:41.118Z,56.40
2023-06-07T21:50:09.607Z,56.60
2023-06-07T21:52:39.382Z,56.60
2023-06-07T21:55:08.004Z,57.60
2023-06-07T21:57:35.894Z,57.00
2023-06-07T22:00:09.704Z,57.00
2023-06-07T22:02:38.062Z,57.30
2023-06-07T22:05:06.334Z,57.50
2023-06-07T22:07:34.355Z,58.00
2023-06-07T22:10:04.004Z,57.60
2023-06-07T22:12:33.730Z,58.10
2023-06-07T22:15:03.524Z,58.20
2023-06-07T22:17:31.776Z,60.20
2023-06-07T22:20:06.929Z,60.00
2023-06-07T22:22:35.505Z,59.90
2023-06-07T22:25:05.486Z,59.80
2023-06-07T22:27:33.992Z,60.00
2023-06-07T22:30:01.855Z,59.80
2023-06-07T22:32:30.309Z,59.80
2023-06-07T22:35:05.438Z,60.10
2023-06-07T22:37:34.615Z,60.00
2023-06-07T22:40:06.408Z,60.30
2023-06-07T22:42:34.971Z,60.50
2023-06-07T22:45:02.972Z,60.20
2023-06-07T22:47:31.289Z,60.60
2023-06-07T22:50:01.721Z,60.50
2023-06-07T22:52:34.276Z,60.90
2023-06-07T22:55:02.427Z,60.80
2023-06-07T22:57:32.216Z,62.00
2023-06-07T23:00:00.191Z,62.30
2023-06-07T23:02:29.845Z,62.10
2023-06-07T23:04:58.313Z,62.00
2023-06-07T23:07:26.135Z,62.10
2023-06-07T23:09:53.990Z,62.00
2023-06-07T23:12:21.859Z,62.00
2023-06-07T23:14:51.316Z,62.40
2023-06-07T23:17:19.201Z,62.50
2023-06-07T23:19:51.338Z,63.80
2023-06-07T23:22:20.450Z,62.50
2023-06-07T23:24:49.106Z,62.60
2023-06-07T23:27:17.148Z,62.70
2023-06-07T23:29:45.366Z,62.70
2023-06-07T23:32:14.949Z,63.00
2023-06-07T23:34:42.947Z,63.30
2023-06-07T23:37:10.852Z,63.20
2023-06-07T23:39:38.693Z,64.70
2023-06-07T23:42:07.227Z,64.70
2023-06-07T23:44:35.097Z,64.80
2023-06-07T23:47:02.977Z,64.90
2023-06-07T23:49:35.348Z,64.70
2023-06-07T23:52:03.915Z,65.20
2023-06-07T23:54:31.827Z,65.00
2023-06-07T23:57:00.323Z,65.30
2023-06-07T23:59:29.373Z,65.40
